sensor_id;sensor_type;location;lat;lon;timestamp;pressure;altitude;pressure_sealevel;temperature;humidity
46782;BME280;32541;46.298;11.506;2023-02-11T00:00:45;91029.66;;;-4.05;55.50
46782;BME280;32541;46.298;11.506;2023-02-11T00:03:13;91030.25;;;-4.01;54.78
46782;BME280;32541;46.298;11.506;2023-02-11T00:05:38;91025.47;;;-4.06;54.91
46782;BME280;32541;46.298;11.506;2023-02-11T00:08:06;91040.69;;;-4.03;54.05
46782;BME280;32541;46.298;11.506;2023-02-11T00:10:32;91037.44;;;-4.07;53.57
46782;BME280;32541;46.298;11.506;2023-02-11T00:13:09;91026.19;;;-3.97;52.15
46782;BME280;32541;46.298;11.506;2023-02-11T00:16:16;91028.88;;;-3.97;51.84
46782;BME280;32541;46.298;11.506;2023-02-11T00:19:05;91025.59;;;-4.01;53.15
46782;BME280;32541;46.298;11.506;2023-02-11T00:21:31;91035.03;;;-4.05;52.79
46782;BME280;32541;46.298;11.506;2023-02-11T00:23:58;91030.84;;;-4.06;52.34
46782;BME280;32541;46.298;11.506;2023-02-11T00:26:33;91030.25;;;-4.01;51.48
46782;BME280;32541;46.298;11.506;2023-02-11T00:29:03;91029.19;;;-4.04;55.28
46782;BME280;32541;46.298;11.506;2023-02-11T00:31:40;91028.75;;;-4.02;55.04
46782;BME280;32541;46.298;11.506;2023-02-11T00:34:08;91026.34;;;-4.00;54.94
46782;BME280;32541;46.298;11.506;2023-02-11T00:36:39;91026.97;;;-4.05;54.40
46782;BME280;32541;46.298;11.506;2023-02-11T00:39:11;91030.28;;;-4.10;53.88
46782;BME280;32541;46.298;11.506;2023-02-11T00:41:38;91029.66;;;-4.05;52.83
46782;BME280;32541;46.298;11.506;2023-02-11T00:44:13;91035.03;;;-4.05;52.67
46782;BME280;32541;46.298;11.506;2023-02-11T00:46:44;91028.19;;;-4.15;55.30
46782;BME280;32541;46.298;11.506;2023-02-11T00:49:17;91032.66;;;-4.12;54.20
46782;BME280;32541;46.298;11.506;2023-02-11T00:51:48;91034.59;;;-4.13;53.75
46782;BME280;32541;46.298;11.506;2023-02-11T00:54:13;91038.03;;;-4.12;53.84
46782;BME280;32541;46.298;11.506;2023-02-11T00:56:53;91039.53;;;-4.20;55.90
46782;BME280;32541;46.298;11.506;2023-02-11T00:59:34;91029.88;;;-4.27;55.15
46782;BME280;32541;46.298;11.506;2023-02-11T01:02:05;91033.44;;;-4.30;54.71
46782;BME280;32541;46.298;11.506;2023-02-11T01:04:36;91028.22;;;-4.24;54.24
46782;BME280;32541;46.298;11.506;2023-02-11T01:07:16;91028.81;;;-4.20;53.89
46782;BME280;32541;46.298;11.506;2023-02-11T01:09:41;91038.66;;;-4.17;54.74
46782;BME280;32541;46.298;11.506;2023-02-11T01:12:23;91033.28;;;-4.17;53.18
46782;BME280;32541;46.298;11.506;2023-02-11T01:14:58;91035.38;;;-4.21;53.77
46782;BME280;32541;46.298;11.506;2023-02-11T01:17:26;91035.38;;;-4.21;54.46
46782;BME280;32541;46.298;11.506;2023-02-11T01:20:19;91032.13;;;-4.25;53.27
46782;BME280;32541;46.298;11.506;2023-02-11T01:23:16;91026.69;;;-4.07;51.69
46782;BME280;32541;46.298;11.506;2023-02-11T01:25:44;91031.59;;;-4.06;52.98
46782;BME280;32541;46.298;11.506;2023-02-11T01:31:47;91030.00;;;-4.21;53.63
46782;BME280;32541;46.298;11.506;2023-02-11T01:34:16;91022.56;;;-4.26;54.39
46782;BME280;32541;46.298;11.506;2023-02-11T01:37:04;91021.06;;;-4.27;54.57
46782;BME280;32541;46.298;11.506;2023-02-11T01:39:37;91016.59;;;-4.30;53.76
46782;BME280;32541;46.298;11.506;2023-02-11T01:42:21;91024.50;;;-4.27;54.64
46782;BME280;32541;46.298;11.506;2023-02-11T01:44:52;91022.13;;;-4.25;54.08
46782;BME280;32541;46.298;11.506;2023-02-11T01:47:33;91018.59;;;-3.98;51.21
46782;BME280;32541;46.298;11.506;2023-02-11T01:50:02;91011.41;;;-3.92;51.56
46782;BME280;32541;46.298;11.506;2023-02-11T01:52:42;91011.47;;;-4.10;52.57
46782;BME280;32541;46.298;11.506;2023-02-11T01:58:21;91011.06;;;-4.27;55.81
46782;BME280;32541;46.298;11.506;2023-02-11T02:01:24;91006.16;;;-4.28;53.84
46782;BME280;32541;46.298;11.506;2023-02-11T02:04:00;90995.72;;;-4.35;54.45
46782;BME280;32541;46.298;11.506;2023-02-11T02:10:16;90988.13;;;-4.37;53.85
46782;BME280;32541;46.298;11.506;2023-02-11T02:12:51;90977.53;;;-4.31;53.52
46782;BME280;32541;46.298;11.506;2023-02-11T02:25:18;90972.22;;;-4.50;54.64
46782;BME280;32541;46.298;11.506;2023-02-11T02:37:10;90958.59;;;-4.28;52.70
46782;BME280;32541;46.298;11.506;2023-02-11T02:39:40;90957.84;;;-4.28;52.72
46782;BME280;32541;46.298;11.506;2023-02-11T02:42:37;90959.03;;;-4.29;52.43
46782;BME280;32541;46.298;11.506;2023-02-11T02:45:19;90958.25;;;-4.21;51.97
46782;BME280;32541;46.298;11.506;2023-02-11T03:06:05;90947.69;;;-4.33;53.29
46782;BME280;32541;46.298;11.506;2023-02-11T03:08:50;90949.22;;;-4.41;54.12
46782;BME280;32541;46.298;11.506;2023-02-11T03:11:27;90952.81;;;-4.54;54.76
46782;BME280;32541;46.298;11.506;2023-02-11T03:13:59;90948.06;;;-4.50;52.77
46782;BME280;32541;46.298;11.506;2023-02-11T03:16:30;90947.31;;;-4.50;54.35
46782;BME280;32541;46.298;11.506;2023-02-11T03:19:14;90946.28;;;-4.53;52.91
46782;BME280;32541;46.298;11.506;2023-02-11T03:21:41;90938.63;;;-4.45;52.15
46782;BME280;32541;46.298;11.506;2023-02-11T03:24:36;90942.03;;;-4.35;50.76
46782;BME280;32541;46.298;11.506;2023-02-11T03:27:18;90941.47;;;-4.39;52.29
46782;BME280;32541;46.298;11.506;2023-02-11T03:30:00;90934.31;;;-4.42;53.55
46782;BME280;32541;46.298;11.506;2023-02-11T03:32:58;90934.50;;;-4.55;54.29
46782;BME280;32541;46.298;11.506;2023-02-11T03:35:55;90923.66;;;-4.61;53.46
46782;BME280;32541;46.298;11.506;2023-02-11T03:38:50;90926.31;;;-4.61;54.47
46782;BME280;32541;46.298;11.506;2023-02-11T03:41:26;90917.69;;;-4.65;55.07
46782;BME280;32541;46.298;11.506;2023-02-11T03:43:56;90913.50;;;-4.66;53.61
46782;BME280;32541;46.298;11.506;2023-02-11T03:46:57;90924.06;;;-4.62;52.79
46782;BME280;32541;46.298;11.506;2023-02-11T03:49:37;90920.66;;;-4.63;53.77
46782;BME280;32541;46.298;11.506;2023-02-11T03:52:07;90923.41;;;-4.39;52.03
46782;BME280;32541;46.298;11.506;2023-02-11T03:54:38;90922.59;;;-4.21;50.35
46782;BME280;32541;46.298;11.506;2023-02-11T03:57:20;90920.84;;;-4.33;50.09
46782;BME280;32541;46.298;11.506;2023-02-11T04:00:16;90922.81;;;-4.34;50.99
46782;BME280;32541;46.298;11.506;2023-02-11T04:02:59;90919.81;;;-4.36;51.73
46782;BME280;32541;46.298;11.506;2023-02-11T04:05:39;90922.38;;;-4.41;51.97
46782;BME280;32541;46.298;11.506;2023-02-11T04:08:12;90925.69;;;-4.46;52.91
46782;BME280;32541;46.298;11.506;2023-02-11T04:10:44;90914.94;;;-4.46;54.02
46782;BME280;32541;46.298;11.506;2023-02-11T04:13:24;90913.44;;;-4.47;54.37
46782;BME280;32541;46.298;11.506;2023-02-11T04:15:50;90919.72;;;-4.51;53.27
46782;BME280;32541;46.298;11.506;2023-02-11T04:18:15;90916.13;;;-4.47;53.27
46782;BME280;32541;46.298;11.506;2023-02-11T04:20:52;90920.41;;;-4.32;50.43
46782;BME280;32541;46.298;11.506;2023-02-11T04:23:18;90913.13;;;-4.40;53.79
46782;BME280;32541;46.298;11.506;2023-02-11T04:25:43;90908.06;;;-4.47;53.77
46782;BME280;32541;46.298;11.506;2023-02-11T04:28:08;90917.16;;;-4.45;53.05
46782;BME280;32541;46.298;11.506;2023-02-11T04:30:34;90912.69;;;-4.48;54.03
46782;BME280;32541;46.298;11.506;2023-02-11T04:32:59;90918.06;;;-4.48;53.22
46782;BME280;32541;46.298;11.506;2023-02-11T04:35:25;90912.88;;;-4.52;52.56
46782;BME280;32541;46.298;11.506;2023-02-11T04:37:50;90912.88;;;-4.52;53.24
46782;BME280;32541;46.298;11.506;2023-02-11T04:40:15;90903.78;;;-4.54;53.66
46782;BME280;32541;46.298;11.506;2023-02-11T04:42:41;90907.59;;;-4.37;52.76
46782;BME280;32541;46.298;11.506;2023-02-11T04:45:06;90909.41;;;-4.43;52.48
46782;BME280;32541;46.298;11.506;2023-02-11T04:47:32;90903.59;;;-4.41;53.69
46782;BME280;32541;46.298;11.506;2023-02-11T04:49:58;90903.03;;;-4.55;53.24
46782;BME280;32541;46.298;11.506;2023-02-11T04:52:23;90905.53;;;-4.51;54.04
46782;BME280;32541;46.298;11.506;2023-02-11T04:54:48;90897.38;;;-4.57;56.10
46782;BME280;32541;46.298;11.506;2023-02-11T04:57:14;90895.03;;;-4.64;54.82
46782;BME280;32541;46.298;11.506;2023-02-11T04:59:39;90894.25;;;-4.55;53.20
46782;BME280;32541;46.298;11.506;2023-02-11T05:02:05;90902.44;;;-4.50;53.38
46782;BME280;32541;46.298;11.506;2023-02-11T05:04:30;90896.03;;;-4.52;53.58
46782;BME280;32541;46.298;11.506;2023-02-11T05:06:56;90901.13;;;-4.63;56.01
46782;BME280;32541;46.298;11.506;2023-02-11T05:09:21;90889.84;;;-4.34;51.69
46782;BME280;32541;46.298;11.506;2023-02-11T05:11:47;90904.03;;;-4.43;51.84
46782;BME280;32541;46.298;11.506;2023-02-11T05:14:12;90889.00;;;-4.50;53.23
46782;BME280;32541;46.298;11.506;2023-02-11T05:16:38;90892.41;;;-4.40;52.22
46782;BME280;32541;46.298;11.506;2023-02-11T05:19:03;90898.09;;;-4.47;51.98
46782;BME280;32541;46.298;11.506;2023-02-11T05:21:29;90902.72;;;-4.47;52.10
46782;BME280;32541;46.298;11.506;2023-02-11T05:23:54;90901.56;;;-4.56;52.98
46782;BME280;32541;46.298;11.506;2023-02-11T05:26:19;90900.41;;;-4.64;53.83
46782;BME280;32541;46.298;11.506;2023-02-11T05:28:45;90897.84;;;-4.58;54.42
46782;BME280;32541;46.298;11.506;2023-02-11T05:31:11;90898.75;;;-4.61;53.20
46782;BME280;32541;46.298;11.506;2023-02-11T05:33:39;90898.16;;;-4.65;52.86
46782;BME280;32541;46.298;11.506;2023-02-11T05:36:07;90899.19;;;-4.63;53.83
46782;BME280;32541;46.298;11.506;2023-02-11T05:38:33;90893.84;;;-4.72;53.57
46782;BME280;32541;46.298;11.506;2023-02-11T05:40:59;90891.59;;;-4.64;53.91
46782;BME280;32541;46.298;11.506;2023-02-11T05:43:25;90883.41;;;-4.70;54.71
46782;BME280;32541;46.298;11.506;2023-02-11T05:45:50;90882.19;;;-4.69;54.09
46782;BME280;32541;46.298;11.506;2023-02-11T05:48:15;90889.53;;;-4.69;53.00
46782;BME280;32541;46.298;11.506;2023-02-11T05:50:42;90891.59;;;-4.64;53.42
46782;BME280;32541;46.298;11.506;2023-02-11T05:53:07;90889.75;;;-4.49;52.53
46782;BME280;32541;46.298;11.506;2023-02-11T05:55:33;90889.31;;;-4.57;53.04
46782;BME280;32541;46.298;11.506;2023-02-11T05:57:58;90885.56;;;-4.50;53.32
46782;BME280;32541;46.298;11.506;2023-02-11T06:00:24;90888.09;;;-4.46;53.96
46782;BME280;32541;46.298;11.506;2023-02-11T06:02:49;90901.56;;;-4.56;53.57
46782;BME280;32541;46.298;11.506;2023-02-11T06:05:15;90892.31;;;-4.55;53.53
46782;BME280;32541;46.298;11.506;2023-02-11T06:07:40;90891.72;;;-4.59;53.45
46782;BME280;32541;46.298;11.506;2023-02-11T06:10:06;90901.44;;;-4.61;54.63
46782;BME280;32541;46.298;11.506;2023-02-11T06:12:32;90894.69;;;-4.57;52.76
46782;BME280;32541;46.298;11.506;2023-02-11T06:14:57;90901.25;;;-4.48;51.56
46782;BME280;32541;46.298;11.506;2023-02-11T06:17:22;90896.59;;;-4.48;53.00
46782;BME280;32541;46.298;11.506;2023-02-11T06:19:49;90896.94;;;-4.55;52.68
46782;BME280;32541;46.298;11.506;2023-02-11T06:22:14;90888.56;;;-4.57;53.16
46782;BME280;32541;46.298;11.506;2023-02-11T06:24:40;90883.03;;;-4.54;52.53
46782;BME280;32541;46.298;11.506;2023-02-11T06:27:05;90886.94;;;-4.55;53.78
46782;BME280;32541;46.298;11.506;2023-02-11T06:29:31;90884.53;;;-4.53;54.47
46782;BME280;32541;46.298;11.506;2023-02-11T06:31:56;90877.66;;;-4.44;53.17
46782;BME280;32541;46.298;11.506;2023-02-11T06:34:22;90890.34;;;-4.21;52.52
46782;BME280;32541;46.298;11.506;2023-02-11T06:36:47;90894.50;;;-4.11;50.92
46782;BME280;32541;46.298;11.506;2023-02-11T06:39:13;90900.22;;;-4.27;52.19
46782;BME280;32541;46.298;11.506;2023-02-11T06:41:38;90895.06;;;-4.31;52.92
46782;BME280;32541;46.298;11.506;2023-02-11T06:44:03;90902.97;;;-4.36;56.52
46782;BME280;32541;46.298;11.506;2023-02-11T06:46:29;90901.66;;;-4.41;53.75
46782;BME280;32541;46.298;11.506;2023-02-11T06:48:55;90902.34;;;-4.31;53.42
46782;BME280;32541;46.298;11.506;2023-02-11T06:51:20;90905.34;;;-4.38;53.88
46782;BME280;32541;46.298;11.506;2023-02-11T06:53:46;90905.22;;;-4.44;54.73
46782;BME280;32541;46.298;11.506;2023-02-11T06:56:17;90904.78;;;-4.42;54.46
46782;BME280;32541;46.298;11.506;2023-02-11T06:58:43;90910.16;;;-4.42;52.74
46782;BME280;32541;46.298;11.506;2023-02-11T07:01:12;90908.91;;;-4.32;52.39
46782;BME280;32541;46.298;11.506;2023-02-11T07:03:39;90917.09;;;-4.27;53.26
46782;BME280;32541;46.298;11.506;2023-02-11T07:06:06;90911.84;;;-4.21;53.06
46782;BME280;32541;46.298;11.506;2023-02-11T07:08:33;90902.72;;;-4.15;52.39
46782;BME280;32541;46.298;11.506;2023-02-11T07:10:58;90913.22;;;-3.93;53.36
46782;BME280;32541;46.298;11.506;2023-02-11T07:13:24;90920.72;;;-4.06;53.03
46782;BME280;32541;46.298;11.506;2023-02-11T07:15:49;90917.00;;;-4.09;53.70
46782;BME280;32541;46.298;11.506;2023-02-11T07:18:15;90922.22;;;-4.05;53.88
46782;BME280;32541;46.298;11.506;2023-02-11T07:20:40;90915.34;;;-4.06;54.37
46782;BME280;32541;46.298;11.506;2023-02-11T07:23:05;90904.72;;;-4.01;53.77
46782;BME280;32541;46.298;11.506;2023-02-11T07:25:31;90901.44;;;-3.96;54.31
46782;BME280;32541;46.298;11.506;2023-02-11T07:27:56;90900.53;;;-3.92;54.36
46782;BME280;32541;46.298;11.506;2023-02-11T07:30:21;90905.09;;;-3.84;54.58
46782;BME280;32541;46.298;11.506;2023-02-11T07:32:47;90909.19;;;-3.74;54.82
46782;BME280;32541;46.298;11.506;2023-02-11T07:35:13;90906.25;;;-3.38;51.32
46782;BME280;32541;46.298;11.506;2023-02-11T07:37:39;90908.84;;;-3.05;49.05
46782;BME280;32541;46.298;11.506;2023-02-11T07:40:06;90895.75;;;-2.24;52.04
46782;BME280;32541;46.298;11.506;2023-02-11T07:42:33;90897.13;;;0.58;46.96
46782;BME280;32541;46.298;11.506;2023-02-11T07:44:59;90895.50;;;2.42;42.17
46782;BME280;32541;46.298;11.506;2023-02-11T07:47:24;90879.59;;;4.48;38.23
46782;BME280;32541;46.298;11.506;2023-02-11T07:49:50;90882.09;;;5.75;33.86
46782;BME280;32541;46.298;11.506;2023-02-11T07:52:15;90895.94;;;6.33;34.00
46782;BME280;32541;46.298;11.506;2023-02-11T07:54:41;90890.25;;;7.80;34.13
46782;BME280;32541;46.298;11.506;2023-02-11T07:57:06;90886.50;;;9.00;32.75
46782;BME280;32541;46.298;11.506;2023-02-11T07:59:31;90881.44;;;9.68;30.71
46782;BME280;32541;46.298;11.506;2023-02-11T08:01:57;90878.56;;;10.25;29.76
46782;BME280;32541;46.298;11.506;2023-02-11T08:04:22;90880.16;;;9.69;28.96
46782;BME280;32541;46.298;11.506;2023-02-11T08:06:47;90885.75;;;10.35;28.97
46782;BME280;32541;46.298;11.506;2023-02-11T08:09:15;90877.38;;;11.32;29.14
46782;BME280;32541;46.298;11.506;2023-02-11T08:11:43;90877.34;;;11.47;28.90
46782;BME280;32541;46.298;11.506;2023-02-11T08:14:10;90872.63;;;11.09;28.38
46782;BME280;32541;46.298;11.506;2023-02-11T08:16:37;90871.16;;;10.93;28.01
46782;BME280;32541;46.298;11.506;2023-02-11T08:19:08;90877.50;;;9.56;29.58
46782;BME280;32541;46.298;11.506;2023-02-11T08:21:34;90874.09;;;9.07;30.86
46782;BME280;32541;46.298;11.506;2023-02-11T08:24:01;90883.56;;;6.77;32.24
46782;BME280;32541;46.298;11.506;2023-02-11T08:26:29;90886.38;;;4.66;35.60
46782;BME280;32541;46.298;11.506;2023-02-11T08:28:57;90886.47;;;3.02;37.92
46782;BME280;32541;46.298;11.506;2023-02-11T08:31:31;90892.28;;;2.49;38.40
46782;BME280;32541;46.298;11.506;2023-02-11T08:33:57;90889.56;;;2.54;40.50
46782;BME280;32541;46.298;11.506;2023-02-11T08:36:25;90886.53;;;3.43;39.41
46782;BME280;32541;46.298;11.506;2023-02-11T08:38:53;90890.25;;;4.16;38.57
46782;BME280;32541;46.298;11.506;2023-02-11T08:41:18;90875.34;;;4.53;38.08
46782;BME280;32541;46.298;11.506;2023-02-11T08:43:45;90877.22;;;4.63;37.40
46782;BME280;32541;46.298;11.506;2023-02-11T08:46:17;90893.88;;;4.84;36.39
46782;BME280;32541;46.298;11.506;2023-02-11T08:48:43;90895.94;;;3.83;37.31
46782;BME280;32541;46.298;11.506;2023-02-11T08:51:13;90888.75;;;3.85;37.82
46782;BME280;32541;46.298;11.506;2023-02-11T08:53:38;90890.25;;;3.81;37.42
46782;BME280;32541;46.298;11.506;2023-02-11T08:56:04;90891.38;;;3.61;37.69
46782;BME280;32541;46.298;11.506;2023-02-11T08:58:49;90896.88;;;2.87;39.92
46782;BME280;32541;46.298;11.506;2023-02-11T09:01:20;90903.16;;;1.82;42.04
46782;BME280;32541;46.298;11.506;2023-02-11T09:03:46;90909.50;;;1.35;41.75
46782;BME280;32541;46.298;11.506;2023-02-11T09:06:13;90908.75;;;1.29;40.36
46782;BME280;32541;46.298;11.506;2023-02-11T09:08:41;90905.50;;;1.13;40.24
46782;BME280;32541;46.298;11.506;2023-02-11T09:11:07;90908.28;;;1.36;41.24
46782;BME280;32541;46.298;11.506;2023-02-11T09:13:33;90904.91;;;1.85;39.08
46782;BME280;32541;46.298;11.506;2023-02-11T09:15:59;90898.97;;;2.14;38.21
46782;BME280;32541;46.298;11.506;2023-02-11T09:18:25;90899.97;;;2.34;38.39
46782;BME280;32541;46.298;11.506;2023-02-11T09:20:51;90905.84;;;2.60;39.42
46782;BME280;32541;46.298;11.506;2023-02-11T09:23:17;90892.66;;;2.97;39.65
46782;BME280;32541;46.298;11.506;2023-02-11T09:25:42;90889.28;;;3.38;39.49
46782;BME280;32541;46.298;11.506;2023-02-11T09:28:08;90890.56;;;3.72;39.42
46782;BME280;32541;46.298;11.506;2023-02-11T09:30:37;90894.28;;;4.04;37.93
46782;BME280;32541;46.298;11.506;2023-02-11T09:33:02;90895.69;;;4.16;36.78
46782;BME280;32541;46.298;11.506;2023-02-11T09:35:28;90890.56;;;4.37;36.54
46782;BME280;32541;46.298;11.506;2023-02-11T09:37:53;90876.34;;;4.49;36.69
46782;BME280;32541;46.298;11.506;2023-02-11T09:40:19;90883.19;;;4.62;36.45
46782;BME280;32541;46.298;11.506;2023-02-11T09:43:05;90886.50;;;4.49;36.69
46782;BME280;32541;46.298;11.506;2023-02-11T09:45:33;90893.38;;;4.56;36.97
46782;BME280;32541;46.298;11.506;2023-02-11T09:48:09;90888.88;;;4.34;35.53
46782;BME280;32541;46.298;11.506;2023-02-11T09:50:40;90895.22;;;3.82;37.32
46782;BME280;32541;46.298;11.506;2023-02-11T09:53:17;90897.88;;;2.84;38.83
46782;BME280;32541;46.298;11.506;2023-02-11T09:55:47;90894.00;;;2.41;39.54
46782;BME280;32541;46.298;11.506;2023-02-11T09:58:34;90897.75;;;2.43;39.29
46782;BME280;32541;46.298;11.506;2023-02-11T10:07:34;90903.66;;;2.42;39.62
46782;BME280;32541;46.298;11.506;2023-02-11T10:09:59;90915.00;;;2.46;39.39
46782;BME280;32541;46.298;11.506;2023-02-11T10:21:00;90899.97;;;3.19;39.15
46782;BME280;32541;46.298;11.506;2023-02-11T10:23:33;90890.41;;;3.59;36.68
46782;BME280;32541;46.298;11.506;2023-02-11T10:26:01;90898.41;;;3.81;37.01
46782;BME280;32541;46.298;11.506;2023-02-11T10:28:36;90893.63;;;3.92;36.74
46782;BME280;32541;46.298;11.506;2023-02-11T10:33:33;90896.63;;;4.24;36.42
46782;BME280;32541;46.298;11.506;2023-02-11T10:36:00;90893.88;;;4.30;35.59
46782;BME280;32541;46.298;11.506;2023-02-11T10:38:26;90900.75;;;4.31;35.79
46782;BME280;32541;46.298;11.506;2023-02-11T10:40:52;90897.28;;;4.36;36.11
46782;BME280;32541;46.298;11.506;2023-02-11T10:43:20;90884.78;;;4.46;36.55
46782;BME280;32541;46.298;11.506;2023-02-11T10:45:49;90892.22;;;4.45;36.60
46782;BME280;32541;46.298;11.506;2023-02-11T10:48:35;90875.63;;;4.49;36.38
46782;BME280;32541;46.298;11.506;2023-02-11T10:53:35;90880.06;;;4.76;35.07
46782;BME280;32541;46.298;11.506;2023-02-11T10:56:01;90871.59;;;4.80;34.46
46782;BME280;32541;46.298;11.506;2023-02-11T10:58:40;90870.47;;;4.70;34.75
46782;BME280;32541;46.298;11.506;2023-02-11T11:01:08;90866.97;;;4.75;34.67
46782;BME280;32541;46.298;11.506;2023-02-11T11:03:44;90868.09;;;4.01;37.44
46782;BME280;32541;46.298;11.506;2023-02-11T11:06:11;90863.44;;;3.61;37.79
46782;BME280;32541;46.298;11.506;2023-02-11T11:08:49;90870.84;;;3.60;38.28
46782;BME280;32541;46.298;11.506;2023-02-11T11:11:17;90861.41;;;3.67;38.85
46782;BME280;32541;46.298;11.506;2023-02-11T11:18:53;90851.75;;;4.01;36.07
46782;BME280;32541;46.298;11.506;2023-02-11T11:21:48;90846.56;;;4.03;36.76
46782;BME280;32541;46.298;11.506;2023-02-11T11:26:55;90837.94;;;3.99;37.93
46782;BME280;32541;46.298;11.506;2023-02-11T11:29:21;90841.88;;;3.98;37.58
46782;BME280;32541;46.298;11.506;2023-02-11T11:31:58;90829.91;;;4.12;37.18
46782;BME280;32541;46.298;11.506;2023-02-11T11:34:30;90833.03;;;4.22;37.23
46782;BME280;32541;46.298;11.506;2023-02-11T11:36:58;90831.94;;;4.06;37.96
46782;BME280;32541;46.298;11.506;2023-02-11T11:39:30;90831.06;;;4.22;40.46
46782;BME280;32541;46.298;11.506;2023-02-11T11:42:02;90832.28;;;4.51;40.55
46782;BME280;32541;46.298;11.506;2023-02-11T11:44:36;90824.16;;;5.13;38.80
46782;BME280;32541;46.298;11.506;2023-02-11T11:52:47;90800.91;;;6.84;32.98
46782;BME280;32541;46.298;11.506;2023-02-11T11:55:23;90798.94;;;7.44;28.56
46782;BME280;32541;46.298;11.506;2023-02-11T11:57:49;90800.78;;;7.02;30.75
46782;BME280;32541;46.298;11.506;2023-02-11T12:00:22;90797.97;;;6.95;30.66
46782;BME280;32541;46.298;11.506;2023-02-11T12:11:02;90787.19;;;7.23;30.28
46782;BME280;32541;46.298;11.506;2023-02-11T12:27:00;90765.84;;;7.21;30.90
46782;BME280;32541;46.298;11.506;2023-02-11T12:38:11;90754.00;;;7.73;30.55
46782;BME280;32541;46.298;11.506;2023-02-11T13:02:32;90723.28;;;9.88;26.08
46782;BME280;32541;46.298;11.506;2023-02-11T13:05:03;90718.94;;;10.23;25.19
46782;BME280;32541;46.298;11.506;2023-02-11T13:07:50;90707.59;;;10.56;26.03
46782;BME280;32541;46.298;11.506;2023-02-11T13:12:49;90698.50;;;11.01;22.44
46782;BME280;32541;46.298;11.506;2023-02-11T13:15:35;90697.63;;;11.39;24.94
46782;BME280;32541;46.298;11.506;2023-02-11T13:23:56;90699.69;;;10.53;24.42
46782;BME280;32541;46.298;11.506;2023-02-11T13:32:06;90684.28;;;9.89;26.52
46782;BME280;32541;46.298;11.506;2023-02-11T13:37:27;90677.50;;;10.05;26.97
46782;BME280;32541;46.298;11.506;2023-02-11T13:40:01;90673.50;;;10.37;28.03
46782;BME280;32541;46.298;11.506;2023-02-11T13:42:28;90672.75;;;10.06;26.79
46782;BME280;32541;46.298;11.506;2023-02-11T13:44:55;90677.31;;;9.81;27.96
46782;BME280;32541;46.298;11.506;2023-02-11T13:49:54;90667.91;;;9.54;29.40
46782;BME280;32541;46.298;11.506;2023-02-11T13:52:23;90665.38;;;9.63;28.79
46782;BME280;32541;46.298;11.506;2023-02-11T13:54:51;90655.44;;;9.37;28.74
46782;BME280;32541;46.298;11.506;2023-02-11T14:08:11;90656.47;;;9.12;28.20
46782;BME280;32541;46.298;11.506;2023-02-11T14:16:19;90656.97;;;9.61;29.34
46782;BME280;32541;46.298;11.506;2023-02-11T14:21:28;90651.13;;;9.95;28.44
46782;BME280;32541;46.298;11.506;2023-02-11T14:26:51;90645.41;;;9.63;29.83
46782;BME280;32541;46.298;11.506;2023-02-11T14:29:48;90646.72;;;9.62;28.49
46782;BME280;32541;46.298;11.506;2023-02-11T14:35:18;90638.81;;;9.50;31.64
46782;BME280;32541;46.298;11.506;2023-02-11T14:40:57;90639.03;;;9.75;29.93
46782;BME280;32541;46.298;11.506;2023-02-11T14:43:34;90628.44;;;9.94;29.90
46782;BME280;32541;46.298;11.506;2023-02-11T14:46:02;90632.81;;;10.28;28.43
46782;BME280;32541;46.298;11.506;2023-02-11T14:48:30;90629.13;;;10.48;26.81
46782;BME280;32541;46.298;11.506;2023-02-11T14:51:03;90634.41;;;10.69;29.13
46782;BME280;32541;46.298;11.506;2023-02-11T14:53:30;90628.34;;;10.70;29.25
46782;BME280;32541;46.298;11.506;2023-02-11T14:55:56;90624.31;;;10.64;28.03
46782;BME280;32541;46.298;11.506;2023-02-11T14:58:30;90621.09;;;10.04;28.03
46782;BME280;32541;46.298;11.506;2023-02-11T15:01:03;90615.94;;;10.01;30.53
46782;BME280;32541;46.298;11.506;2023-02-11T15:03:35;90618.91;;;10.33;30.49
46782;BME280;32541;46.298;11.506;2023-02-11T15:06:23;90620.31;;;10.57;28.28
46782;BME280;32541;46.298;11.506;2023-02-11T15:09:19;90615.97;;;10.24;28.28
46782;BME280;32541;46.298;11.506;2023-02-11T15:11:48;90618.53;;;9.91;27.15
46782;BME280;32541;46.298;11.506;2023-02-11T15:14:17;90613.78;;;9.77;28.39
46782;BME280;32541;46.298;11.506;2023-02-11T15:16:44;90613.03;;;9.91;27.15
46782;BME280;32541;46.298;11.506;2023-02-11T15:19:31;90620.88;;;9.42;28.25
46782;BME280;32541;46.298;11.506;2023-02-11T15:22:01;90629.03;;;9.12;30.49
46782;BME280;32541;46.298;11.506;2023-02-11T15:24:30;90619.91;;;9.24;29.57
46782;BME280;32541;46.298;11.506;2023-02-11T15:29:39;90630.44;;;8.98;28.92
46782;BME280;32541;46.298;11.506;2023-02-11T15:34:33;90623.97;;;8.72;31.07
46782;BME280;32541;46.298;11.506;2023-02-11T15:36:59;90626.28;;;8.61;30.20
46782;BME280;32541;46.298;11.506;2023-02-11T15:41:55;90639.44;;;8.06;33.41
46782;BME280;32541;46.298;11.506;2023-02-11T15:44:31;90642.00;;;8.04;30.56
46782;BME280;32541;46.298;11.506;2023-02-11T15:46:58;90644.31;;;8.00;31.66
46782;BME280;32541;46.298;11.506;2023-02-11T15:49:24;90641.06;;;8.01;31.15
46782;BME280;32541;46.298;11.506;2023-02-11T15:51:51;90636.59;;;7.91;32.09
46782;BME280;32541;46.298;11.506;2023-02-11T15:54:20;90644.16;;;7.77;34.79
46782;BME280;32541;46.298;11.506;2023-02-11T15:56:49;90632.03;;;7.65;35.66
46782;BME280;32541;46.298;11.506;2023-02-11T15:59:24;90643.72;;;7.65;35.88
46782;BME280;32541;46.298;11.506;2023-02-11T16:01:50;90643.03;;;7.52;35.34
46782;BME280;32541;46.298;11.506;2023-02-11T16:04:18;90633.63;;;7.60;34.33
46782;BME280;32541;46.298;11.506;2023-02-11T16:06:44;90647.22;;;7.32;36.20
46782;BME280;32541;46.298;11.506;2023-02-11T16:17:26;90651.09;;;6.69;38.51
46782;BME280;32541;46.298;11.506;2023-02-11T16:19:52;90656.91;;;6.39;37.48
46782;BME280;32541;46.298;11.506;2023-02-11T16:22:22;90659.44;;;6.37;36.59
46782;BME280;32541;46.298;11.506;2023-02-11T16:24:49;90657.78;;;6.34;38.34
46782;BME280;32541;46.298;11.506;2023-02-11T16:29:47;90671.78;;;5.73;39.15
46782;BME280;32541;46.298;11.506;2023-02-11T16:32:19;90675.56;;;5.38;37.55